This is the latest recevied weather packets stored in our database for station/object SP3ZBZ-13. If no packets are shown the sender has not sent any weather packets the latest 1 day(s).
| Time | Temp. | Humidity | Pressure | Rain* | Wind** | Luminosity | Snow |
|---|---|---|---|---|---|---|---|
| 1778096157 | 8.33° C | 94% | 1003.6 hPa | - | - | - | - |
| 1778092554 | 10° C | 89% | 1002.6 hPa | - | - | - | - |
| 1778091653 | 10° C | 89% | 1002.5 hPa | - | - | 3 W/m² | - |
| 1778090752 | 10° C | 90% | 1002.3 hPa | - | - | 7 W/m² | - |
| 1778084446 | 11.67° C | 89% | 1002 hPa | - | - | 37 W/m² | - |
| 1778081743 | 11.67° C | 90% | 1001.6 hPa | - | - | 46 W/m² | - |
| 1778080842 | 11.67° C | 90% | 1001.5 hPa | - | - | 62 W/m² | - |
| 1778079941 | 12.22° C | 89% | 1001.4 hPa | - | - | 82 W/m² | - |
| 1778077238 | 12.22° C | 91% | 1001.3 hPa | - | - | 115 W/m² | - |
| 1778072733 | 12.22° C | 93% | 1000.9 hPa | - | - | 104 W/m² | - |
| 1778071832 | 11.67° C | 92% | 1000.8 hPa | - | - | 93 W/m² | - |
| 1778070931 | 12.22° C | 90% | 1000.8 hPa | - | - | 76 W/m² | - |
| 1778067327 | 12.78° C | 82% | 1000.5 hPa | - | - | 182 W/m² | - |
| 1778066426 | 12.78° C | 82% | 1000.6 hPa | - | - | 134 W/m² | - |
| 1778065525 | 12.78° C | 81% | 1000.7 hPa | - | - | 135 W/m² | - |
| 1778064624 | 12.22° C | 82% | 1000.6 hPa | - | - | 152 W/m² | - |
| 1778063723 | 12.22° C | 83% | 1000.7 hPa | - | - | 97 W/m² | - |
| 1778062822 | 12.22° C | 82% | 1000.7 hPa | - | - | 133 W/m² | - |
| 1778061020 | 11.67° C | 84% | 1000.5 hPa | - | - | 181 W/m² | - |
| 1778059218 | 11.11° C | 84% | 1000.6 hPa | - | - | 158 W/m² | - |
| 1778050209 | 10° C | 88% | 1000.4 hPa | - | - | 50 W/m² | - |
| 1778048407 | 9.44° C | 88% | 1000.6 hPa | - | - | 33 W/m² | - |
| 1778047506 | 9.44° C | 88% | 1000.7 hPa | - | - | 32 W/m² | - |
| 1778046605 | 9.44° C | 88% | 1000.7 hPa | - | - | 50 W/m² | - |
| 1778043902 | 9.44° C | 90% | 1000.7 hPa | - | - | 37 W/m² | - |
* Rain since midnight (hover to see other rain measurements)
** Current wind speed in m/s (hover to see current wind gust speed)